Share

Auxerre, France

11:24 PM CEST on April 23, 2014 (GMT +0200)
Auxerre (IBOURGOG13) Elev 541 ft | 47.94 °N, 3.73 °E | Change Station

Current weather conditions updated 17 seconds ago

Clear
Clear
56.3 °F
Feels Like 56.3 °F
N
-
Wind Variable Wind from North
Sunrise 6:42 AM
Sunset 8:46 PM
Moon Waning Crescent

Tomorrow is forecast to be nearly the same temperature as today. Periods of late night light rain tomorrow night.

Pressure 30.09 in
Visibility 6.2 miles
Clouds
Dew Point 48 °F
Humidity 72%
Rainfall -999.00 in
Snow Depth Not available.
UV Not available.
Pollen Not available.
Air Quality Not available.
Flu Activity Not available.
METAR LFQG 232100Z AUTO 00000KT 9999 NSC 10/07 Q1019

More Conditions Fewer Conditions

Pressure 30.09 in
Visibility 6.2 miles
Clouds
Dew Point 48 °F
Humidity 72%
Rainfall -999.00 in
Snow Depth Not available.
UV Not available.
Pollen Not available.
Air Quality Not available.
Flu Activity Not available.
METAR LFQG 232100Z AUTO 00000KT 9999 NSC 10/07 Q1019

More Conditions Fewer Conditions

10-Day Weather Forecast

Almanac

Astronomy

Apr. 23, 2014 Rise Set
Actual Time 6:42 AM CEST 8:46 PM CEST
Civil Twilight 6:08 AM CEST 9:20 PM CEST
Nautical Twilight 5:27 AM CEST 10:01 PM CEST
Astronomical Twilight 4:41 AM CEST 10:48 PM CEST
Moon 3:31 AM CEST 2:11 PM CEST
Length of Visible Light 15h 11m
Length of Day
14h 04m
Tomorrow will be 3m 12s longer.
Waning Crescent, 32% of the Moon is Illuminated
Today
Waning Crescent
Apr 29
New
May 6
First Quarter
May 14
Full
May 21
Last Quarter

Today's Extremes

Country Highs Country Lows

Community

  • Stunning Sunrise
    Stunning Sunrise
  • spring flowers
    spring flowers
  • Earth Day Spectrum Ove' Blue
    Earth Day Spectrum Ove' Blue
  • BARN B&W
    BARN B&W
  • April Sunset
    April Sunset

WunderPhotos

Upload Photos

1,704,415 photos uploaded!

WunderBlogs® & News

Nearby

Snow Depth

Not available.

Coastal Water Temperatures

Place Temperature
No Stations Reporting

Earthquake Activity

City Distance Mag. Time & Date
No recent earthquake activity has been reported nearby.
Minimum magnitude displayed is 2.5.

Nearby Weather Stations

Station Location Temp. Dew Point Humidity Wind Precip. Elev Updated Type
Auxerre, Lordonnois 56.3 °F 48 °F 72% North  at  - 0.00 in / hr 541 ft 11:23 PM CEST Normal
Joigny, Villecien 56.1 °F 48 °F 74% WSW  at  0.0 mph 0.00 in / hr 269 ft 11:20 PM CEST Normal
CERISIERS, CERISIERS 53.9 °F 51 °F 90% ESE  at  6.0 mph 0.00 in / hr 466 ft 11:15 PM CEST Normal

Show More Stations Show Fewer Stations

What do you think?

We're not finished. Please let us know what you like, what you don't like, and what you are still missing.